createdAt,value
2023-05-05T00:00:47.204Z,101521.03
2023-05-05T00:03:36.989Z,101525.78
2023-05-05T00:06:28.453Z,101513.75
2023-05-05T00:09:22.572Z,101518.31
2023-05-05T00:12:10.234Z,101514.00
2023-05-05T00:15:00.067Z,101508.31
2023-05-05T00:17:47.479Z,101495.91
2023-05-05T00:20:37.128Z,101508.28
2023-05-05T00:23:24.678Z,101519.66
2023-05-05T00:26:13.261Z,101500.97
2023-05-05T00:29:06.494Z,101509.63
2023-05-05T00:31:54.112Z,101489.47
2023-05-05T00:34:41.924Z,101504.09
2023-05-05T00:37:31.410Z,101513.94
2023-05-05T00:40:19.229Z,101514.50
2023-05-05T00:43:08.302Z,101528.13
2023-05-05T00:46:03.074Z,101515.09
2023-05-05T00:48:54.056Z,101506.44
2023-05-05T00:51:43.773Z,101494.84
2023-05-05T00:54:33.343Z,101492.91
2023-05-05T00:57:20.792Z,101479.53
2023-05-05T01:00:12.238Z,101479.06
2023-05-05T01:03:00.065Z,101473.28
2023-05-05T01:05:56.909Z,101466.28
2023-05-05T01:09:01.933Z,101461.13
2023-05-05T01:11:59.897Z,101453.59
2023-05-05T01:15:06.781Z,101436.56
2023-05-05T01:17:59.747Z,101442.09
2023-05-05T01:20:58.991Z,101448.06
2023-05-05T01:24:08.092Z,101445.28
2023-05-05T01:27:18.125Z,101449.59
2023-05-05T01:30:28.690Z,101457.13
2023-05-05T01:33:20.289Z,101462.69
2023-05-05T01:36:13.654Z,101455.06
2023-05-05T01:39:03.101Z,101466.75
2023-05-05T01:41:54.364Z,101464.06
2023-05-05T01:44:44.200Z,101465.53
2023-05-05T01:47:32.305Z,101469.97
2023-05-05T01:50:23.308Z,101461.78
2023-05-05T01:53:11.710Z,101455.31
2023-05-05T01:56:00.153Z,101457.25
2023-05-05T01:58:49.218Z,101462.50
2023-05-05T02:01:41.800Z,101469.09
2023-05-05T02:04:31.863Z,101472.03
2023-05-05T02:07:23.460Z,101475.25
2023-05-05T02:10:13.739Z,101476.59
2023-05-05T02:13:05.398Z,101480.53
2023-05-05T02:15:55.538Z,101492.84
2023-05-05T02:18:48.457Z,101509.13
2023-05-05T02:21:36.566Z,101514.16
2023-05-05T02:24:28.489Z,101517.28
2023-05-05T02:27:21.706Z,101518.19
2023-05-05T02:30:15.257Z,101521.03
2023-05-05T02:33:09.263Z,101511.06
2023-05-05T02:35:57.590Z,101508.59
2023-05-05T02:38:48.643Z,101509.97
2023-05-05T02:41:39.537Z,101498.56
2023-05-05T02:44:32.453Z,101492.22
2023-05-05T02:47:23.162Z,101493.16
2023-05-05T02:50:13.389Z,101497.94
2023-05-05T02:53:01.215Z,101494.72
2023-05-05T02:55:53.758Z,101497.91
2023-05-05T02:58:51.233Z,101495.88
2023-05-05T03:02:00.309Z,101498.59
2023-05-05T03:04:52.265Z,101496.25
2023-05-05T03:07:52.298Z,101488.78
2023-05-05T03:10:49.222Z,101492.25
2023-05-05T03:13:40.985Z,101501.09
2023-05-05T03:16:35.161Z,101508.41
2023-05-05T03:19:24.732Z,101501.75
2023-05-05T03:22:16.538Z,101500.31
2023-05-05T03:25:04.745Z,101518.34
2023-05-05T03:27:55.122Z,101523.97
2023-05-05T03:30:43.231Z,101527.81
2023-05-05T03:33:32.632Z,101531.63
2023-05-05T03:36:20.119Z,101524.00
2023-05-05T03:39:11.151Z,101530.50
2023-05-05T03:41:59.112Z,101526.06
2023-05-05T03:44:47.467Z,101521.41
2023-05-05T03:47:59.196Z,101514.28
2023-05-05T03:50:48.977Z,101511.13
2023-05-05T03:53:36.879Z,101508.13
2023-05-05T03:56:27.125Z,101519.28
2023-05-05T03:59:17.357Z,101528.09
2023-05-05T04:02:23.369Z,101530.09
2023-05-05T04:09:09.703Z,101544.59
2023-05-05T04:12:11.031Z,101550.25
2023-05-05T04:15:08.928Z,101557.41
2023-05-05T04:17:56.238Z,101551.41
2023-05-05T04:20:43.673Z,101563.06
2023-05-05T04:23:32.599Z,101571.03
2023-05-05T04:26:19.921Z,101569.69
2023-05-05T04:29:09.917Z,101575.03
2023-05-05T04:31:58.343Z,101575.84
2023-05-05T04:34:45.624Z,101575.03
2023-05-05T04:37:33.051Z,101577.19
2023-05-05T04:40:20.490Z,101580.19
2023-05-05T04:43:07.950Z,101584.53
2023-05-05T04:45:56.673Z,101592.66
2023-05-05T04:48:44.300Z,101597.81
2023-05-05T04:51:32.246Z,101599.66
2023-05-05T04:54:22.096Z,101602.28
2023-05-05T04:57:09.883Z,101609.59
2023-05-05T04:59:57.404Z,101612.25
2023-05-05T05:02:46.382Z,101618.22
2023-05-05T05:05:36.686Z,101613.34
2023-05-05T05:08:24.243Z,101616.69
2023-05-05T05:11:12.181Z,101615.09
2023-05-05T05:13:59.765Z,101618.78
2023-05-05T05:16:56.705Z,101617.25
2023-05-05T05:19:45.300Z,101614.22
2023-05-05T05:22:33.021Z,101614.38
2023-05-05T05:25:20.399Z,101628.19
2023-05-05T05:28:10.064Z,101619.03
2023-05-05T05:30:58.566Z,101616.53
2023-05-05T05:33:46.405Z,101627.34
2023-05-05T05:36:35.363Z,101633.34
2023-05-05T05:39:27.300Z,101639.00
2023-05-05T05:42:14.628Z,101636.00
2023-05-05T05:45:02.336Z,101646.47
2023-05-05T05:47:55.375Z,101639.72
2023-05-05T05:50:45.832Z,101637.06
2023-05-05T05:53:37.934Z,101638.28
2023-05-05T05:56:25.563Z,101628.72
2023-05-05T05:59:12.770Z,101632.38
2023-05-05T06:02:00.365Z,101632.34
2023-05-05T06:04:48.144Z,101629.66
2023-05-05T06:07:38.161Z,101624.00
2023-05-05T06:10:28.458Z,101618.13
2023-05-05T06:13:16.255Z,101622.75
2023-05-05T06:16:03.725Z,101633.13
2023-05-05T06:18:51.399Z,101651.88
2023-05-05T06:21:38.725Z,101652.28
2023-05-05T06:24:29.374Z,101655.91
2023-05-05T06:27:20.808Z,101645.94
2023-05-05T06:30:14.888Z,101652.56
2023-05-05T06:33:02.383Z,101645.59
2023-05-05T06:35:51.934Z,101652.69
2023-05-05T06:38:39.253Z,101655.19
2023-05-05T06:41:26.620Z,101653.59
2023-05-05T06:44:15.320Z,101655.00
2023-05-05T06:47:08.119Z,101654.59
2023-05-05T06:49:55.573Z,101654.41
2023-05-05T06:52:49.322Z,101667.72
2023-05-05T06:55:37.031Z,101667.81
2023-05-05T06:58:24.539Z,101657.91
2023-05-05T07:01:13.991Z,101654.13
2023-05-05T07:04:04.718Z,101663.63
2023-05-05T07:06:52.340Z,101658.00
2023-05-05T07:09:50.856Z,101666.38
2023-05-05T07:12:38.620Z,101674.59
2023-05-05T07:15:29.270Z,101675.22
2023-05-05T07:18:20.933Z,101676.88
2023-05-05T07:21:08.515Z,101677.34
2023-05-05T07:24:41.212Z,101681.38
2023-05-05T07:27:43.286Z,101685.81
2023-05-05T07:30:33.577Z,101687.09
2023-05-05T07:33:22.546Z,101674.66
2023-05-05T07:36:12.842Z,101674.41
2023-05-05T07:39:03.635Z,101681.91
2023-05-05T07:41:52.865Z,101675.13
2023-05-05T07:44:43.369Z,101671.03
2023-05-05T07:47:31.305Z,101684.50
2023-05-05T07:50:20.763Z,101688.84
2023-05-05T07:53:14.559Z,101674.63
2023-05-05T07:56:06.391Z,101672.66
2023-05-05T07:58:53.883Z,101679.97
2023-05-05T08:01:41.801Z,101676.72
2023-05-05T08:04:29.796Z,101688.91
2023-05-05T08:07:18.699Z,101683.19
2023-05-05T08:10:09.010Z,101696.09
2023-05-05T08:12:56.855Z,101692.59
2023-05-05T08:15:45.247Z,101691.00
2023-05-05T08:18:34.537Z,101692.69
2023-05-05T08:21:22.496Z,101690.47
2023-05-05T08:24:11.783Z,101693.09
2023-05-05T08:27:01.709Z,101693.84
2023-05-05T08:29:49.256Z,101701.13
2023-05-05T08:32:36.895Z,101698.09
2023-05-05T08:35:26.472Z,101706.00
2023-05-05T08:38:14.249Z,101716.03
2023-05-05T08:41:04.129Z,101712.53
2023-05-05T08:43:51.642Z,101706.13
2023-05-05T08:46:40.268Z,101702.69
2023-05-05T08:49:32.053Z,101707.84
2023-05-05T08:52:26.841Z,101710.75
2023-05-05T08:55:21.352Z,101711.94
2023-05-05T08:58:14.644Z,101718.25
2023-05-05T09:01:02.586Z,101712.16
2023-05-05T09:03:52.555Z,101718.75
2023-05-05T09:06:40.902Z,101730.91
2023-05-05T09:09:29.490Z,101720.66
2023-05-05T09:12:21.787Z,101729.22
2023-05-05T09:15:12.972Z,101725.28
2023-05-05T09:18:05.274Z,101728.41
2023-05-05T09:20:56.052Z,101733.38
2023-05-05T09:24:08.120Z,101727.97
2023-05-05T09:27:02.763Z,101727.16
2023-05-05T09:29:51.339Z,101718.22
2023-05-05T09:32:49.312Z,101730.56
2023-05-05T09:35:53.676Z,101728.47
2023-05-05T09:38:41.380Z,101732.22
2023-05-05T09:41:39.708Z,101728.72
2023-05-05T09:44:40.320Z,101722.63
2023-05-05T09:47:39.811Z,101739.19
2023-05-05T09:50:43.498Z,101742.44
2023-05-05T09:53:39.810Z,101728.97
2023-05-05T09:56:38.554Z,101740.91
2023-05-05T09:59:26.365Z,101742.81
2023-05-05T10:02:14.178Z,101742.63
2023-05-05T10:05:10.042Z,101738.44
2023-05-05T10:08:14.666Z,101755.06
2023-05-05T10:11:07.451Z,101750.88
2023-05-05T10:14:00.232Z,101748.31
2023-05-05T10:16:52.189Z,101746.41
2023-05-05T10:19:40.491Z,101744.22
2023-05-05T10:22:30.812Z,101744.19
2023-05-05T10:25:28.362Z,101748.47
2023-05-05T10:28:22.233Z,101750.34
2023-05-05T10:31:25.200Z,101754.28
2023-05-05T10:34:24.344Z,101753.81
2023-05-05T10:37:36.708Z,101747.69
2023-05-05T10:40:26.113Z,101743.75
2023-05-05T10:43:16.793Z,101740.31
2023-05-05T10:46:05.076Z,101742.25
2023-05-05T10:49:11.766Z,101739.50
2023-05-05T10:52:14.208Z,101736.47
2023-05-05T10:55:13.798Z,101728.06
2023-05-05T10:58:02.619Z,101738.84
2023-05-05T11:00:51.249Z,101734.63
2023-05-05T11:03:56.198Z,101735.34
2023-05-05T11:07:53.776Z,101737.84
2023-05-05T11:10:44.868Z,101734.06
2023-05-05T11:13:38.714Z,101739.88
2023-05-05T11:16:48.012Z,101735.47
2023-05-05T11:19:49.415Z,101737.09
2023-05-05T11:23:11.115Z,101728.84
2023-05-05T11:26:04.645Z,101723.06
2023-05-05T11:28:59.903Z,101722.44
2023-05-05T11:32:13.695Z,101719.84
2023-05-05T11:35:06.380Z,101722.44
2023-05-05T11:38:10.352Z,101711.03
2023-05-05T11:41:04.344Z,101718.72
2023-05-05T11:44:24.959Z,101711.63
2023-05-05T11:47:28.230Z,101724.59
2023-05-05T11:50:21.483Z,101724.28
2023-05-05T11:53:09.513Z,101723.47
2023-05-05T11:56:13.855Z,101736.75
2023-05-05T11:59:09.820Z,101734.47
2023-05-05T12:02:04.444Z,101728.09
2023-05-05T12:04:58.957Z,101728.91
2023-05-05T12:07:58.976Z,101730.19
2023-05-05T12:10:47.321Z,101736.19
2023-05-05T12:13:36.143Z,101727.81
2023-05-05T12:16:23.754Z,101729.16
2023-05-05T12:19:14.600Z,101724.84
2023-05-05T12:22:05.596Z,101731.06
2023-05-05T12:24:57.904Z,101727.13
2023-05-05T12:27:51.748Z,101722.50
2023-05-05T12:30:39.816Z,101717.50
2023-05-05T12:33:27.449Z,101727.81
2023-05-05T12:36:16.784Z,101727.28
2023-05-05T12:39:09.696Z,101727.28
2023-05-05T12:42:03.389Z,101727.13
2023-05-05T12:44:51.613Z,101723.28
2023-05-05T12:47:44.350Z,101719.44
2023-05-05T12:50:35.688Z,101728.78
2023-05-05T12:53:25.834Z,101727.00
2023-05-05T12:56:36.497Z,101721.69
2023-05-05T12:59:30.738Z,101717.53
2023-05-05T13:02:18.923Z,101718.94
2023-05-05T13:05:08.763Z,101735.47
2023-05-05T13:07:56.468Z,101742.00
2023-05-05T13:11:20.232Z,61849.50
2023-05-05T13:14:07.886Z,101743.00
2023-05-05T13:17:04.502Z,101752.16
2023-05-05T13:19:53.082Z,101758.66
2023-05-05T13:22:40.550Z,101762.47
2023-05-05T13:25:43.205Z,101761.16
2023-05-05T13:28:34.341Z,101750.16
2023-05-05T13:31:23.032Z,61849.50
2023-05-05T13:34:11.129Z,61849.50
2023-05-05T13:37:05.170Z,61849.50
2023-05-05T13:39:52.816Z,61849.50
2023-05-05T13:42:40.554Z,61849.50
2023-05-05T13:45:33.723Z,61849.50
2023-05-05T13:48:21.419Z,61849.50
2023-05-05T13:51:09.568Z,61849.50
2023-05-05T13:53:59.773Z,61849.50
2023-05-05T13:56:47.023Z,61849.50
2023-05-05T13:59:39.919Z,61849.50
2023-05-05T14:02:38.561Z,61849.50
2023-05-05T14:05:38.373Z,61849.50
2023-05-05T14:08:40.101Z,61849.50
2023-05-05T14:11:27.584Z,61849.50
2023-05-05T14:14:15.222Z,61849.50
2023-05-05T14:17:02.875Z,61849.50
2023-05-05T14:19:52.243Z,61849.50
2023-05-05T14:22:42.960Z,61849.50
2023-05-05T14:25:30.878Z,61849.50
2023-05-05T14:28:18.237Z,61849.50
2023-05-05T14:31:06.557Z,61849.50
2023-05-05T14:33:56.689Z,61849.50
2023-05-05T14:36:45.925Z,61849.50
2023-05-05T14:39:33.242Z,61849.50
2023-05-05T14:42:20.863Z,61849.50
2023-05-05T14:45:16.872Z,61849.50
2023-05-05T14:48:22.945Z,61849.50
2023-05-05T14:51:10.873Z,61849.50
2023-05-05T14:54:00.006Z,61849.50
2023-05-05T14:56:47.388Z,61849.50
2023-05-05T15:00:04.289Z,61849.50
2023-05-05T15:02:51.918Z,61849.50
2023-05-05T15:05:51.667Z,61849.50
2023-05-05T15:08:41.943Z,61849.50
2023-05-05T15:11:30.820Z,61849.50
2023-05-05T15:14:19.632Z,61849.50
2023-05-05T15:17:30.405Z,61849.50
2023-05-05T15:20:22.562Z,61849.50
2023-05-05T15:23:10.341Z,61849.50
2023-05-05T15:26:03.653Z,61849.50
2023-05-05T15:28:55.297Z,61849.50
2023-05-05T15:31:43.186Z,61849.50
2023-05-05T15:34:31.369Z,61849.50
2023-05-05T15:37:21.316Z,61849.50
2023-05-05T15:40:12.771Z,61849.50
2023-05-05T15:43:00.323Z,61849.50
2023-05-05T15:45:48.936Z,61849.50
2023-05-05T15:48:38.695Z,61849.50
2023-05-05T15:51:26.332Z,61849.50
2023-05-05T15:54:17.837Z,61849.50
2023-05-05T15:57:05.561Z,61849.50
2023-05-05T15:59:57.472Z,61849.50
2023-05-05T16:02:46.637Z,61849.50
2023-05-05T16:05:37.643Z,61849.50
2023-05-05T16:08:26.081Z,61849.50
2023-05-05T16:11:26.924Z,61849.50
2023-05-05T16:14:18.479Z,61849.50
2023-05-05T16:17:07.714Z,61849.50
2023-05-05T16:20:00.226Z,61849.50
2023-05-05T16:22:47.581Z,61849.50
2023-05-05T16:25:35.090Z,61849.50
2023-05-05T16:28:22.932Z,61849.50
2023-05-05T16:31:12.785Z,61849.50
2023-05-05T16:34:02.594Z,61849.50
2023-05-05T16:36:53.357Z,61849.50
2023-05-05T16:39:41.597Z,61849.50
2023-05-05T16:42:29.010Z,61849.50
2023-05-05T16:45:16.701Z,61849.50
2023-05-05T16:48:09.093Z,61849.50
2023-05-05T16:50:59.763Z,61849.50
2023-05-05T16:53:49.229Z,61849.50
2023-05-05T16:56:41.225Z,61849.50
2023-05-05T16:59:30.357Z,61849.50
2023-05-05T17:02:23.734Z,61849.50
2023-05-05T17:05:11.322Z,61849.50
2023-05-05T17:08:21.257Z,61849.50
2023-05-05T17:11:30.846Z,61849.50
2023-05-05T17:14:18.815Z,61849.50
2023-05-05T17:17:07.271Z,61849.50
2023-05-05T17:19:54.997Z,61849.50
2023-05-05T17:22:46.962Z,61849.50
2023-05-05T17:25:34.771Z,61849.50
2023-05-05T17:28:24.004Z,61849.50
2023-05-05T17:31:11.441Z,61849.50
2023-05-05T17:33:58.612Z,61849.50
2023-05-05T17:36:46.077Z,61849.50
2023-05-05T17:39:33.739Z,61849.50
2023-05-05T17:42:23.149Z,61849.50
2023-05-05T17:45:13.007Z,61849.50
2023-05-05T17:48:21.784Z,61849.50
2023-05-05T17:51:09.991Z,61849.50
2023-05-05T17:53:58.771Z,61849.50
2023-05-05T17:56:45.874Z,61849.50
2023-05-05T17:59:36.759Z,61849.50
2023-05-05T18:02:30.356Z,61849.50
2023-05-05T18:05:18.175Z,61849.50
2023-05-05T18:08:06.619Z,61849.50
2023-05-05T18:10:54.552Z,61849.50
2023-05-05T18:13:49.315Z,61849.50
2023-05-05T18:16:40.066Z,61849.50
2023-05-05T18:19:28.987Z,61849.50
2023-05-05T18:22:16.567Z,61849.50
2023-05-05T18:25:08.032Z,61849.50
2023-05-05T18:28:02.437Z,61849.50
2023-05-05T18:30:50.647Z,61849.50
2023-05-05T18:33:40.201Z,61849.50
2023-05-05T18:36:34.152Z,61849.50
2023-05-05T18:39:21.701Z,61849.50
2023-05-05T18:42:09.060Z,61849.50
2023-05-05T18:44:56.678Z,61849.50
2023-05-05T18:47:44.996Z,61849.50
2023-05-05T18:50:34.814Z,61849.50
2023-05-05T18:53:27.571Z,61849.50
2023-05-05T18:56:25.636Z,61849.50
2023-05-05T18:59:13.939Z,61849.50
2023-05-05T19:02:04.422Z,61849.50
2023-05-05T19:04:52.293Z,61849.50
2023-05-05T19:07:42.276Z,61849.50
2023-05-05T19:10:31.021Z,61849.50
2023-05-05T19:13:24.813Z,61849.50
2023-05-05T19:16:15.882Z,61849.50
2023-05-05T19:19:20.572Z,61849.50
2023-05-05T19:22:10.491Z,61849.50
2023-05-05T19:24:58.409Z,61849.50
2023-05-05T19:28:01.761Z,61849.50
2023-05-05T19:30:56.671Z,61849.50
2023-05-05T19:33:45.786Z,61849.50
2023-05-05T19:36:34.485Z,61849.50
2023-05-05T19:39:24.680Z,61849.50
2023-05-05T19:42:13.497Z,61849.50
2023-05-05T19:45:02.792Z,61849.50
2023-05-05T19:47:50.387Z,61849.50
2023-05-05T19:50:41.417Z,61849.50
2023-05-05T19:53:29.460Z,61849.50
2023-05-05T19:56:17.267Z,61849.50
2023-05-05T19:59:06.762Z,61849.50
2023-05-05T20:01:56.332Z,61849.50
2023-05-05T20:04:46.156Z,61849.50
2023-05-05T20:07:33.368Z,61849.50
2023-05-05T20:10:22.024Z,61849.50
2023-05-05T20:13:09.450Z,61849.50
2023-05-05T20:15:57.358Z,61849.50
2023-05-05T20:18:46.312Z,61849.50
2023-05-05T20:21:34.998Z,61849.50
2023-05-05T20:24:23.274Z,61849.50
2023-05-05T20:27:10.967Z,61849.50
2023-05-05T20:30:01.530Z,61849.50
2023-05-05T20:32:49.010Z,61849.50
2023-05-05T20:35:39.212Z,61849.50
2023-05-05T20:38:27.976Z,61849.50
2023-05-05T20:41:15.481Z,61849.50
2023-05-05T20:44:03.266Z,61849.50
2023-05-05T20:46:54.237Z,61849.50
2023-05-05T20:49:44.168Z,61849.50
2023-05-05T20:52:40.485Z,61849.50
2023-05-05T20:55:42.806Z,61849.50
2023-05-05T20:58:30.460Z,61849.50
2023-05-05T21:01:30.475Z,61849.50
2023-05-05T21:04:17.985Z,61849.50
2023-05-05T21:07:05.693Z,61849.50
2023-05-05T21:09:57.983Z,61849.50
2023-05-05T21:12:52.838Z,61849.50
2023-05-05T21:15:43.797Z,61849.50
2023-05-05T21:18:34.430Z,61849.50
2023-05-05T21:21:24.055Z,61849.50
2023-05-05T21:24:14.002Z,61849.50
2023-05-05T21:27:03.659Z,61849.50
2023-05-05T21:29:51.196Z,61849.50
2023-05-05T21:32:44.290Z,61849.50
2023-05-05T21:35:31.880Z,61849.50
2023-05-05T21:38:19.611Z,61849.50
2023-05-05T21:41:10.342Z,61849.50
2023-05-05T21:43:59.588Z,61849.50
2023-05-05T21:46:50.290Z,61849.50
2023-05-05T21:49:38.618Z,61849.50
2023-05-05T21:52:26.247Z,61849.50
2023-05-05T21:55:13.867Z,61849.50
2023-05-05T21:58:01.623Z,61849.50
2023-05-05T22:00:51.894Z,61849.50
2023-05-05T22:03:39.355Z,61849.50
2023-05-05T22:06:28.207Z,61849.50
2023-05-05T22:09:17.712Z,61849.50
2023-05-05T22:12:05.901Z,61849.50
2023-05-05T22:14:53.619Z,61849.50
2023-05-05T22:17:46.590Z,61849.50
2023-05-05T22:20:35.865Z,61849.50
2023-05-05T22:23:23.975Z,61849.50
2023-05-05T22:26:12.414Z,61849.50
2023-05-05T22:29:00.462Z,61849.50
2023-05-05T22:31:51.825Z,61849.50
2023-05-05T22:34:44.481Z,61849.50
2023-05-05T22:37:34.937Z,61849.50
2023-05-05T22:40:22.503Z,61849.50
2023-05-05T22:43:09.838Z,61849.50
2023-05-05T22:45:57.565Z,61849.50
2023-05-05T22:48:44.868Z,61849.50
2023-05-05T22:51:34.336Z,61849.50
2023-05-05T22:54:21.851Z,61849.50
2023-05-05T22:57:09.655Z,61849.50
2023-05-05T23:00:00.735Z,61849.50
2023-05-05T23:02:49.127Z,61849.50
2023-05-05T23:05:38.876Z,61849.50
2023-05-05T23:08:27.841Z,61849.50
2023-05-05T23:11:15.420Z,61849.50
2023-05-05T23:14:03.116Z,61849.50
2023-05-05T23:16:50.647Z,61849.50
2023-05-05T23:19:43.707Z,61849.50
2023-05-05T23:22:34.673Z,61849.50
2023-05-05T23:25:23.598Z,61849.50
2023-05-05T23:28:11.407Z,61849.50
2023-05-05T23:31:03.250Z,61849.50
2023-05-05T23:33:50.720Z,61849.50
2023-05-05T23:36:43.166Z,61849.50
2023-05-05T23:39:36.953Z,61849.50
2023-05-05T23:42:25.892Z,61849.50
2023-05-05T23:45:13.900Z,61849.50
2023-05-05T23:48:04.584Z,61849.50
2023-05-05T23:50:53.091Z,61849.50
2023-05-05T23:53:40.430Z,61849.50
2023-05-05T23:56:28.877Z,61849.50
2023-05-05T23:59:17.992Z,61849.50
